createdAt,value
2017-02-21T00:01:08.241Z,0
2017-02-21T00:02:18.603Z,0
2017-02-21T00:03:28.947Z,0
2017-02-21T00:04:39.298Z,0
2017-02-21T00:05:49.634Z,0
2017-02-21T00:07:00.242Z,0
2017-02-21T00:08:10.594Z,0
2017-02-21T00:09:20.929Z,0
2017-02-21T00:10:31.676Z,0
2017-02-21T00:11:42.038Z,0
2017-02-21T00:12:53.059Z,0
2017-02-21T00:14:03.799Z,0
2017-02-21T00:15:14.567Z,0
2017-02-21T00:16:24.529Z,0
2017-02-21T00:17:34.491Z,0
2017-02-21T00:18:45.516Z,0
2017-02-21T00:19:55.484Z,0
2017-02-21T00:21:05.039Z,0
2017-02-21T00:22:15.378Z,0
2017-02-21T00:23:25.721Z,0
2017-02-21T00:24:36.702Z,0
2017-02-21T00:25:47.488Z,0
2017-02-21T00:26:57.861Z,0
2017-02-21T00:28:08.607Z,0
2017-02-21T00:29:18.996Z,0
2017-02-21T00:30:29.188Z,0
2017-02-21T00:31:39.541Z,0
2017-02-21T00:32:50.280Z,0
2017-02-21T00:34:00.245Z,0
2017-02-21T00:35:10.200Z,0
2017-02-21T00:36:20.789Z,0
2017-02-21T00:37:30.737Z,0
2017-02-21T00:38:41.483Z,0
2017-02-21T00:39:52.231Z,0
2017-02-21T00:41:02.981Z,0
2017-02-21T00:42:13.969Z,0
2017-02-21T00:43:24.725Z,0
2017-02-21T00:44:35.125Z,0
2017-02-21T00:45:45.451Z,0
2017-02-21T00:46:56.194Z,0
2017-02-21T00:48:06.818Z,0
2017-02-21T00:49:17.544Z,0
2017-02-21T00:50:27.102Z,0
2017-02-21T00:51:37.045Z,0
2017-02-21T00:52:47.784Z,0
2017-02-21T00:53:58.818Z,0
2017-02-21T00:55:09.170Z,0
2017-02-21T00:56:19.136Z,0
2017-02-21T00:57:29.492Z,0
2017-02-21T00:58:39.848Z,0
2017-02-21T00:59:50.897Z,0
2017-02-21T01:01:00.444Z,0
2017-02-21T01:02:10.798Z,0
2017-02-21T01:03:21.540Z,0
2017-02-21T01:04:31.912Z,0
2017-02-21T01:05:42.552Z,0
2017-02-21T01:06:52.928Z,0
2017-02-21T01:08:03.663Z,0
2017-02-21T01:09:14.436Z,0
2017-02-21T01:10:24.785Z,0
2017-02-21T01:11:35.810Z,0
2017-02-21T01:12:45.769Z,0
2017-02-21T01:13:56.500Z,0
2017-02-21T01:15:06.872Z,0
2017-02-21T01:16:16.427Z,0
2017-02-21T01:17:27.496Z,0
2017-02-21T01:18:37.858Z,0
2017-02-21T01:19:48.608Z,0
2017-02-21T01:20:59.356Z,0
2017-02-21T01:22:09.720Z,0
2017-02-21T01:23:20.725Z,0
2017-02-21T01:24:31.067Z,0
2017-02-21T01:25:41.422Z,0
2017-02-21T01:26:50.987Z,0
2017-02-21T01:28:01.357Z,0
2017-02-21T01:29:11.976Z,0
2017-02-21T01:30:22.708Z,0
2017-02-21T01:31:33.054Z,0
2017-02-21T01:32:43.397Z,0
2017-02-21T01:33:53.749Z,0
2017-02-21T01:35:04.360Z,0
2017-02-21T01:36:14.699Z,0
2017-02-21T01:37:25.439Z,0
2017-02-21T01:38:35.410Z,0
2017-02-21T01:39:45.355Z,0
2017-02-21T01:40:55.937Z,0
2017-02-21T01:42:06.273Z,0
2017-02-21T01:43:16.218Z,0
2017-02-21T01:44:26.156Z,0
2017-02-21T01:45:36.920Z,0
2017-02-21T01:46:47.964Z,0
2017-02-21T01:47:58.702Z,0
2017-02-21T01:49:08.641Z,0
2017-02-21T01:50:18.593Z,0
2017-02-21T01:51:29.348Z,0
2017-02-21T01:52:39.579Z,0
2017-02-21T01:53:49.928Z,0
2017-02-21T01:54:59.879Z,0
2017-02-21T01:56:09.838Z,0
2017-02-21T01:57:20.573Z,0
2017-02-21T01:58:30.824Z,0
2017-02-21T01:59:41.163Z,0
2017-02-21T02:00:50.732Z,0
2017-02-21T02:02:00.684Z,0
2017-02-21T02:03:10.261Z,0
2017-02-21T02:04:19.698Z,0
2017-02-21T02:05:30.443Z,0
2017-02-21T02:06:40.789Z,0
2017-02-21T02:07:50.747Z,0
2017-02-21T02:09:00.740Z,0
2017-02-21T02:10:10.988Z,0
2017-02-21T02:11:20.547Z,0
2017-02-21T02:12:30.898Z,0
2017-02-21T02:13:40.475Z,0
2017-02-21T02:14:51.212Z,0
2017-02-21T02:16:02.210Z,0
2017-02-21T02:17:12.958Z,0
2017-02-21T02:18:23.317Z,0
2017-02-21T02:19:34.059Z,0
2017-02-21T02:20:44.420Z,0
2017-02-21T02:21:55.428Z,0
2017-02-21T02:23:05.761Z,0
2017-02-21T02:24:15.723Z,0
2017-02-21T02:25:25.675Z,0
2017-02-21T02:26:36.026Z,0
2017-02-21T02:27:47.060Z,0
2017-02-21T02:28:57.028Z,0
2017-02-21T02:30:07.790Z,0
2017-02-21T02:31:18.152Z,0
2017-02-21T02:32:27.310Z,0
2017-02-21T02:33:37.931Z,0
2017-02-21T02:34:48.285Z,0
2017-02-21T02:35:58.635Z,0
2017-02-21T02:37:09.393Z,0
2017-02-21T02:38:19.756Z,0
2017-02-21T02:39:30.344Z,0
2017-02-21T02:40:40.283Z,0
2017-02-21T02:41:51.041Z,0
2017-02-21T02:43:01.782Z,0
2017-02-21T02:44:12.548Z,0
2017-02-21T02:45:23.559Z,0
2017-02-21T02:46:33.541Z,0
2017-02-21T02:47:43.912Z,0
2017-02-21T02:48:53.870Z,0
2017-02-21T02:50:03.852Z,0
2017-02-21T02:51:14.489Z,0
2017-02-21T02:52:24.826Z,0
2017-02-21T02:53:35.165Z,0
2017-02-21T02:54:45.521Z,0
2017-02-21T02:55:55.466Z,0
2017-02-21T02:57:05.333Z,0
2017-02-21T02:58:15.674Z,0
2017-02-21T02:59:26.016Z,0
2017-02-21T03:00:36.378Z,0
2017-02-21T03:01:46.320Z,0
2017-02-21T03:02:56.918Z,0
2017-02-21T03:04:07.674Z,0
2017-02-21T03:05:18.030Z,0
2017-02-21T03:06:27.983Z,0
2017-02-21T03:07:37.546Z,0
2017-02-21T03:08:47.753Z,0
2017-02-21T03:09:57.757Z,0
2017-02-21T03:11:08.521Z,0
2017-02-21T03:12:18.861Z,0
2017-02-21T03:13:28.828Z,0
2017-02-21T03:14:39.438Z,0
2017-02-21T03:15:50.221Z,0
2017-02-21T03:17:00.567Z,0
2017-02-21T03:18:10.906Z,0
2017-02-21T03:19:21.283Z,0
2017-02-21T03:20:31.542Z,0
2017-02-21T03:21:42.300Z,0
2017-02-21T03:22:52.637Z,0
2017-02-21T03:24:03.373Z,0
2017-02-21T03:25:13.724Z,0
2017-02-21T03:26:24.336Z,0
2017-02-21T03:27:34.668Z,0
2017-02-21T03:28:44.613Z,0
2017-02-21T03:29:55.360Z,0
2017-02-21T03:31:04.905Z,0
2017-02-21T03:32:15.507Z,0
2017-02-21T03:33:25.855Z,0
2017-02-21T03:34:35.516Z,0
2017-02-21T03:35:45.456Z,0
2017-02-21T03:36:55.818Z,0
2017-02-21T03:38:06.854Z,0
2017-02-21T03:39:16.815Z,0
2017-02-21T03:40:27.553Z,0
2017-02-21T03:41:37.942Z,0
2017-02-21T03:42:47.889Z,0
2017-02-21T03:43:58.154Z,0
2017-02-21T03:45:08.136Z,0
2017-02-21T03:46:18.469Z,0
2017-02-21T03:47:28.831Z,0
2017-02-21T03:48:39.590Z,0
2017-02-21T03:49:50.185Z,0
2017-02-21T03:51:00.953Z,0
2017-02-21T03:52:10.889Z,0
2017-02-21T03:53:21.652Z,0
2017-02-21T03:54:31.593Z,0
2017-02-21T03:55:41.829Z,0
2017-02-21T03:56:52.192Z,0
2017-02-21T03:58:02.381Z,0
2017-02-21T03:59:12.718Z,0
2017-02-21T04:00:22.665Z,0
2017-02-21T04:01:33.686Z,0
2017-02-21T04:02:43.638Z,0
2017-02-21T04:03:54.403Z,0
2017-02-21T04:05:04.743Z,0
2017-02-21T04:06:15.485Z,0
2017-02-21T04:07:26.729Z,0
2017-02-21T04:08:37.050Z,0
2017-02-21T04:09:47.008Z,0
2017-02-21T04:10:57.353Z,0
2017-02-21T04:12:07.692Z,0
2017-02-21T04:13:17.882Z,0
2017-02-21T04:14:28.630Z,0
2017-02-21T04:15:38.588Z,0
2017-02-21T04:16:48.545Z,0
2017-02-21T04:17:58.143Z,0
2017-02-21T04:19:08.771Z,0
2017-02-21T04:20:19.127Z,0
2017-02-21T04:21:29.472Z,0
2017-02-21T04:22:39.818Z,0
2017-02-21T04:23:49.776Z,0
2017-02-21T04:25:00.449Z,0
2017-02-21T04:26:10.823Z,0
2017-02-21T04:27:20.791Z,0
2017-02-21T04:28:31.168Z,0
2017-02-21T04:29:41.110Z,0
2017-02-21T04:30:51.755Z,0
2017-02-21T04:32:02.518Z,0
2017-02-21T04:33:12.508Z,0
2017-02-21T04:34:22.462Z,0
2017-02-21T04:35:33.209Z,0
2017-02-21T04:36:44.220Z,0
2017-02-21T04:37:54.579Z,0
2017-02-21T04:39:04.922Z,0
2017-02-21T04:40:15.270Z,0
2017-02-21T04:41:25.613Z,0
2017-02-21T04:42:35.438Z,0
2017-02-21T04:43:45.386Z,0
2017-02-21T04:44:56.173Z,0
2017-02-21T04:46:06.148Z,0
2017-02-21T04:47:16.503Z,0
2017-02-21T04:48:27.479Z,0
2017-02-21T04:49:38.228Z,0
2017-02-21T04:50:48.206Z,0
2017-02-21T04:51:57.370Z,0
2017-02-21T04:53:07.357Z,0
2017-02-21T04:54:17.623Z,0
2017-02-21T04:55:27.178Z,0
2017-02-21T04:56:37.917Z,0
2017-02-21T04:57:47.866Z,0
2017-02-21T04:58:57.817Z,0
2017-02-21T05:00:08.848Z,0
2017-02-21T05:01:19.226Z,0
2017-02-21T05:02:29.581Z,0
2017-02-21T05:03:40.340Z,0
2017-02-21T05:04:51.076Z,0
2017-02-21T05:06:01.690Z,0
2017-02-21T05:07:12.430Z,0
2017-02-21T05:08:23.175Z,0
2017-02-21T05:09:33.168Z,0
2017-02-21T05:10:43.537Z,0
2017-02-21T05:11:54.538Z,0
2017-02-21T05:13:04.521Z,0
2017-02-21T05:14:15.258Z,0
2017-02-21T05:15:26.013Z,0
2017-02-21T05:16:36.371Z,0
2017-02-21T05:17:46.225Z,0
2017-02-21T05:18:56.586Z,0
2017-02-21T05:20:06.548Z,0
2017-02-21T05:21:16.893Z,0
2017-02-21T05:22:27.253Z,0
2017-02-21T05:23:37.895Z,0
2017-02-21T05:24:48.247Z,0
2017-02-21T05:25:58.611Z,0
2017-02-21T05:27:09.367Z,0
2017-02-21T05:28:18.903Z,0
2017-02-21T05:29:29.118Z,0
2017-02-21T05:30:39.488Z,0
2017-02-21T05:31:49.440Z,0
2017-02-21T05:33:00.177Z,0
2017-02-21T05:34:10.146Z,0
2017-02-21T05:35:21.137Z,0
2017-02-21T05:36:31.870Z,0
2017-02-21T05:37:41.835Z,0
2017-02-21T05:38:52.173Z,0
2017-02-21T05:40:02.516Z,0
2017-02-21T05:41:12.775Z,0
2017-02-21T05:42:22.736Z,0
2017-02-21T05:43:33.108Z,0
2017-02-21T05:44:43.876Z,0
2017-02-21T05:45:53.827Z,0
2017-02-21T05:47:03.634Z,0
2017-02-21T05:48:14.408Z,0
2017-02-21T05:49:24.388Z,0
2017-02-21T05:50:34.759Z,0
2017-02-21T05:51:44.730Z,0
2017-02-21T05:52:54.961Z,0
2017-02-21T05:54:05.305Z,0
2017-02-21T05:55:15.268Z,0
2017-02-21T05:56:24.814Z,0
2017-02-21T05:57:35.583Z,0
2017-02-21T05:58:45.838Z,0
2017-02-21T05:59:56.604Z,0
2017-02-21T06:01:07.342Z,0
2017-02-21T06:02:17.700Z,0
2017-02-21T06:03:27.636Z,0
2017-02-21T06:04:37.834Z,0
2017-02-21T06:05:48.609Z,0
2017-02-21T06:06:59.362Z,0
2017-02-21T06:08:10.105Z,0
2017-02-21T06:09:20.440Z,0
2017-02-21T06:10:30.708Z,0
2017-02-21T06:11:41.083Z,0
2017-02-21T06:12:51.832Z,0
2017-02-21T06:14:02.569Z,0
2017-02-21T06:15:12.933Z,0
2017-02-21T06:16:23.140Z,0
2017-02-21T06:17:33.716Z,0
2017-02-21T06:18:44.479Z,0
2017-02-21T06:19:55.259Z,0
2017-02-21T06:21:05.617Z,0
2017-02-21T06:22:16.279Z,0
2017-02-21T06:23:25.834Z,0
2017-02-21T06:24:36.587Z,0
2017-02-21T06:25:46.960Z,0
2017-02-21T06:26:56.641Z,0
2017-02-21T06:28:07.249Z,0
2017-02-21T06:29:18.006Z,0
2017-02-21T06:30:28.754Z,0
2017-02-21T06:31:39.498Z,0
2017-02-21T06:32:49.841Z,0
2017-02-21T06:34:00.043Z,0
2017-02-21T06:35:10.023Z,0
2017-02-21T06:36:20.483Z,0
2017-02-21T06:37:30.043Z,0
2017-02-21T06:38:40.392Z,0
2017-02-21T06:39:50.655Z,0
2017-02-21T06:41:01.000Z,0
2017-02-21T06:42:11.355Z,0
2017-02-21T06:43:21.719Z,0
2017-02-21T06:44:31.675Z,5
2017-02-21T06:45:42.359Z,5
2017-02-21T06:46:53.118Z,5
2017-02-21T06:48:03.099Z,5
2017-02-21T06:49:13.459Z,5
2017-02-21T06:50:23.438Z,5
2017-02-21T06:51:34.088Z,10
2017-02-21T06:52:44.845Z,10
2017-02-21T06:53:55.223Z,10
2017-02-21T06:55:05.588Z,5
2017-02-21T06:56:15.943Z,5
2017-02-21T06:57:25.760Z,5
2017-02-21T06:58:35.742Z,5
2017-02-21T06:59:46.498Z,10
2017-02-21T07:00:57.262Z,10
2017-02-21T07:02:08.287Z,10
2017-02-21T07:03:18.938Z,10
2017-02-21T07:04:29.313Z,5
2017-02-21T07:05:39.286Z,5
2017-02-21T07:06:50.061Z,5
2017-02-21T07:08:00.849Z,5
2017-02-21T07:09:11.857Z,10
2017-02-21T07:10:22.603Z,10
2017-02-21T07:11:33.354Z,10
2017-02-21T07:12:43.735Z,10
2017-02-21T07:13:54.516Z,10
2017-02-21T07:15:05.265Z,10
2017-02-21T07:16:15.629Z,10
2017-02-21T07:17:25.593Z,10
2017-02-21T07:18:35.591Z,15
2017-02-21T07:19:46.359Z,15
2017-02-21T07:20:57.038Z,20
2017-02-21T07:22:07.808Z,20
2017-02-21T07:23:18.241Z,20
2017-02-21T07:24:28.631Z,15
2017-02-21T07:25:38.608Z,15
2017-02-21T07:26:48.884Z,10
2017-02-21T07:27:59.639Z,10
2017-02-21T07:29:10.397Z,10
2017-02-21T07:30:20.744Z,10
2017-02-21T07:31:30.734Z,10
2017-02-21T07:32:41.806Z,10
2017-02-21T07:33:52.145Z,15
2017-02-21T07:35:02.893Z,15
2017-02-21T07:36:13.265Z,20
2017-02-21T07:37:23.607Z,25
2017-02-21T07:38:34.613Z,30
2017-02-21T07:39:45.380Z,25
2017-02-21T07:40:55.731Z,25
2017-02-21T07:42:06.563Z,25
2017-02-21T07:43:17.343Z,25
2017-02-21T07:44:28.417Z,25
2017-02-21T07:45:39.169Z,30
2017-02-21T07:46:49.537Z,30
2017-02-21T07:47:59.896Z,30
2017-02-21T07:49:09.895Z,35
2017-02-21T07:50:20.550Z,30
2017-02-21T07:51:31.302Z,25
2017-02-21T07:52:40.876Z,25
2017-02-21T07:53:51.275Z,25
2017-02-21T07:55:01.643Z,25
2017-02-21T07:56:12.270Z,20
2017-02-21T07:57:22.673Z,20
2017-02-21T07:58:33.427Z,20
2017-02-21T07:59:43.396Z,20
2017-02-21T08:00:53.380Z,15
2017-02-21T08:02:03.998Z,20
2017-02-21T08:03:13.562Z,20
2017-02-21T08:04:23.946Z,20
2017-02-21T08:05:34.333Z,20
2017-02-21T08:06:45.095Z,20
2017-02-21T08:07:56.177Z,15
2017-02-21T08:09:06.573Z,15
2017-02-21T08:10:16.577Z,15
2017-02-21T08:11:27.335Z,15
2017-02-21T08:12:38.297Z,15
2017-02-21T08:13:49.330Z,15
2017-02-21T08:14:59.721Z,10
2017-02-21T08:16:10.127Z,10
2017-02-21T08:17:20.932Z,10
2017-02-21T08:18:30.881Z,10
2017-02-21T08:19:41.924Z,5
2017-02-21T08:20:51.884Z,5
2017-02-21T08:22:01.472Z,5
2017-02-21T08:23:12.249Z,5
2017-02-21T08:24:23.014Z,5
2017-02-21T08:25:33.642Z,10
2017-02-21T08:26:44.036Z,10
2017-02-21T08:27:54.425Z,10
2017-02-21T08:29:04.790Z,5
2017-02-21T08:30:15.567Z,10
2017-02-21T08:31:26.356Z,15
2017-02-21T08:32:36.703Z,15
2017-02-21T08:33:47.041Z,15
2017-02-21T08:34:56.998Z,15
2017-02-21T08:36:07.188Z,10
2017-02-21T08:37:17.136Z,10
2017-02-21T08:38:27.500Z,10
2017-02-21T08:39:38.268Z,10
2017-02-21T08:40:49.027Z,10
2017-02-21T08:41:59.715Z,15
2017-02-21T08:43:10.470Z,15
2017-02-21T08:44:21.224Z,15
2017-02-21T08:45:31.959Z,10
2017-02-21T08:46:42.729Z,5
2017-02-21T08:47:53.742Z,5
2017-02-21T08:49:04.114Z,20
2017-02-21T08:50:13.309Z,20
2017-02-21T08:51:24.093Z,15
2017-02-21T08:52:34.836Z,15
2017-02-21T08:53:45.118Z,20
2017-02-21T08:54:55.470Z,15
2017-02-21T08:56:05.811Z,25
2017-02-21T08:57:15.361Z,25
2017-02-21T08:58:26.139Z,25
2017-02-21T08:59:35.972Z,30
2017-02-21T09:00:46.324Z,30
2017-02-21T09:01:56.675Z,40
2017-02-21T09:03:07.055Z,35
2017-02-21T09:04:17.421Z,30
2017-02-21T09:05:28.029Z,30
2017-02-21T09:06:38.407Z,20
2017-02-21T09:07:48.784Z,20
2017-02-21T09:08:58.749Z,25
2017-02-21T09:10:09.112Z,25
2017-02-21T09:11:18.916Z,35
2017-02-21T09:12:29.291Z,50
2017-02-21T09:13:39.652Z,45
2017-02-21T09:14:50.013Z,40
2017-02-21T09:16:00.790Z,40
2017-02-21T09:17:11.849Z,35
2017-02-21T09:18:22.202Z,25
2017-02-21T09:19:31.366Z,15
2017-02-21T09:20:40.940Z,10
2017-02-21T09:21:51.679Z,15
2017-02-21T09:23:02.298Z,10
2017-02-21T09:24:12.655Z,15
2017-02-21T09:25:23.444Z,20
2017-02-21T09:26:33.020Z,15
2017-02-21T09:27:43.600Z,20
2017-02-21T09:28:54.630Z,30
2017-02-21T09:30:05.386Z,45
2017-02-21T09:31:15.752Z,40
2017-02-21T09:32:25.763Z,55
2017-02-21T09:33:36.508Z,55
2017-02-21T09:34:47.507Z,55
2017-02-21T09:35:57.478Z,60
2017-02-21T09:37:07.822Z,50
2017-02-21T09:38:18.182Z,50
2017-02-21T09:39:28.548Z,50
2017-02-21T09:40:39.571Z,50
2017-02-21T09:41:49.533Z,45
2017-02-21T09:43:00.303Z,50
2017-02-21T09:44:10.675Z,50
2017-02-21T09:45:20.633Z,50
2017-02-21T09:46:30.859Z,65
2017-02-21T09:47:40.437Z,70
2017-02-21T09:48:50.818Z,65
2017-02-21T09:50:00.791Z,50
2017-02-21T09:51:11.551Z,65
2017-02-21T09:52:22.482Z,75
2017-02-21T09:53:32.425Z,70
2017-02-21T09:54:43.180Z,65
2017-02-21T09:55:53.110Z,40
2017-02-21T09:57:03.509Z,55
2017-02-21T09:58:14.169Z,75
2017-02-21T09:59:24.911Z,95
2017-02-21T10:00:35.300Z,75
2017-02-21T10:01:45.417Z,50
2017-02-21T10:02:56.193Z,75
2017-02-21T10:04:06.788Z,60
2017-02-21T10:05:17.156Z,65
2017-02-21T10:06:27.519Z,80
2017-02-21T10:07:37.867Z,80
2017-02-21T10:08:48.630Z,60
2017-02-21T10:09:59.253Z,45
2017-02-21T10:11:08.419Z,55
2017-02-21T10:12:18.393Z,50
2017-02-21T10:13:28.353Z,55
2017-02-21T10:14:38.709Z,40
2017-02-21T10:15:48.568Z,25
2017-02-21T10:16:58.543Z,15
2017-02-21T10:18:08.511Z,15
2017-02-21T10:19:18.885Z,15
2017-02-21T10:20:29.225Z,15
2017-02-21T10:21:40.217Z,15
2017-02-21T10:22:50.175Z,15
2017-02-21T10:24:00.547Z,15
2017-02-21T10:25:10.916Z,15
2017-02-21T10:26:20.882Z,25
2017-02-21T10:27:31.874Z,30
2017-02-21T10:28:42.640Z,35
2017-02-21T10:29:53.382Z,30
2017-02-21T10:31:03.780Z,20
2017-02-21T10:32:14.555Z,45
2017-02-21T10:33:25.401Z,30
2017-02-21T10:34:35.743Z,35
2017-02-21T10:35:46.096Z,35
2017-02-21T10:36:55.665Z,70
2017-02-21T10:38:06.071Z,85
2017-02-21T10:39:16.638Z,75
2017-02-21T10:40:27.006Z,70
2017-02-21T10:41:37.371Z,70
2017-02-21T10:42:47.308Z,60
2017-02-21T10:43:56.886Z,65
2017-02-21T10:45:07.572Z,80
2017-02-21T10:46:17.949Z,75
2017-02-21T10:47:28.720Z,80
2017-02-21T10:48:38.265Z,75
2017-02-21T10:49:48.617Z,85
2017-02-21T10:50:59.242Z,65
2017-02-21T10:52:09.596Z,70
2017-02-21T10:53:19.593Z,60
2017-02-21T10:54:30.346Z,75
2017-02-21T10:55:39.938Z,65
2017-02-21T10:56:50.970Z,60
2017-02-21T10:58:01.732Z,60
2017-02-21T10:59:11.690Z,60
2017-02-21T11:00:22.431Z,65
2017-02-21T11:01:32.769Z,60
2017-02-21T11:02:43.354Z,60
2017-02-21T11:03:54.183Z,55
2017-02-21T11:05:04.547Z,55
2017-02-21T11:06:14.912Z,55
2017-02-21T11:07:25.267Z,55
2017-02-21T11:08:35.924Z,55
2017-02-21T11:09:46.259Z,55
2017-02-21T11:10:56.648Z,55
2017-02-21T11:12:07.409Z,55
2017-02-21T11:13:17.757Z,75
2017-02-21T11:14:28.330Z,60
2017-02-21T11:15:38.727Z,55
2017-02-21T11:16:48.730Z,60
2017-02-21T11:17:59.528Z,70
2017-02-21T11:19:09.522Z,90
2017-02-21T11:20:20.310Z,60
2017-02-21T11:21:30.295Z,60
2017-02-21T11:22:40.257Z,65
2017-02-21T11:23:50.619Z,60
2017-02-21T11:25:00.983Z,70
2017-02-21T11:26:11.356Z,55
2017-02-21T11:27:22.116Z,60
2017-02-21T11:28:32.866Z,90
2017-02-21T11:29:42.840Z,80
2017-02-21T11:30:54.105Z,110
2017-02-21T11:32:04.469Z,90
2017-02-21T11:33:14.837Z,70
2017-02-21T11:34:25.184Z,70
2017-02-21T11:35:35.167Z,65
2017-02-21T11:36:46.360Z,65
2017-02-21T11:37:57.109Z,60
2017-02-21T11:39:07.052Z,60
2017-02-21T11:40:17.001Z,65
2017-02-21T11:41:27.359Z,75
2017-02-21T11:42:37.958Z,80
2017-02-21T11:43:48.708Z,70
2017-02-21T11:44:59.063Z,60
2017-02-21T11:46:09.012Z,60
2017-02-21T11:47:19.784Z,65
2017-02-21T11:48:30.771Z,75
2017-02-21T11:49:40.781Z,85
2017-02-21T11:50:50.748Z,85
2017-02-21T11:52:01.161Z,80
2017-02-21T11:53:11.548Z,95
2017-02-21T11:54:22.162Z,105
2017-02-21T11:55:32.135Z,105
2017-02-21T11:56:41.693Z,115
2017-02-21T11:57:52.055Z,95
2017-02-21T11:59:02.797Z,105
2017-02-21T12:00:13.433Z,75
2017-02-21T12:01:23.406Z,80
2017-02-21T12:02:33.759Z,115
2017-02-21T12:03:44.507Z,110
2017-02-21T12:04:54.842Z,110
2017-02-21T12:06:04.726Z,105
2017-02-21T12:07:15.046Z,75
2017-02-21T12:08:25.473Z,70
2017-02-21T12:09:35.800Z,70
2017-02-21T12:10:46.157Z,70
2017-02-21T12:11:56.352Z,80
2017-02-21T12:13:06.301Z,80
2017-02-21T12:14:17.034Z,95
2017-02-21T12:15:27.775Z,105
2017-02-21T12:16:38.148Z,95
2017-02-21T12:17:49.155Z,110
2017-02-21T12:19:00.138Z,115
2017-02-21T12:20:10.491Z,110
2017-02-21T12:21:20.444Z,95
2017-02-21T12:22:30.783Z,90
2017-02-21T12:23:41.035Z,95
2017-02-21T12:24:51.037Z,80
2017-02-21T12:26:00.595Z,85
2017-02-21T12:27:10.958Z,95
2017-02-21T12:28:20.934Z,90
2017-02-21T12:29:31.165Z,90
2017-02-21T12:30:41.601Z,100
2017-02-21T12:31:52.351Z,95
2017-02-21T12:33:02.703Z,105
2017-02-21T12:34:13.061Z,105
2017-02-21T12:35:24.108Z,90
2017-02-21T12:36:34.461Z,75
2017-02-21T12:37:45.233Z,80
2017-02-21T12:38:56.026Z,75
2017-02-21T12:40:06.802Z,90
2017-02-21T12:41:17.391Z,70
2017-02-21T12:42:27.343Z,60
2017-02-21T12:43:36.907Z,55
2017-02-21T12:44:47.651Z,90
2017-02-21T12:45:57.617Z,60
2017-02-21T12:47:07.860Z,50
2017-02-21T12:48:18.231Z,50
2017-02-21T12:49:27.797Z,50
2017-02-21T12:50:38.632Z,50
2017-02-21T12:51:48.590Z,50
2017-02-21T12:52:58.971Z,50
2017-02-21T12:54:09.979Z,50
2017-02-21T12:55:20.758Z,50
2017-02-21T12:56:31.117Z,50
2017-02-21T12:57:42.089Z,50
2017-02-21T12:58:52.808Z,50
2017-02-21T13:00:03.584Z,55
2017-02-21T13:01:13.947Z,60
2017-02-21T13:02:23.908Z,75
2017-02-21T13:03:34.133Z,90
2017-02-21T13:04:44.900Z,75
2017-02-21T13:05:54.866Z,70
2017-02-21T13:07:05.268Z,100
2017-02-21T13:08:16.054Z,95
2017-02-21T13:09:27.097Z,95
2017-02-21T13:10:37.463Z,100
2017-02-21T13:11:47.441Z,105
2017-02-21T13:12:57.688Z,75
2017-02-21T13:14:08.036Z,65
2017-02-21T13:15:18.654Z,50
2017-02-21T13:16:29.393Z,45
2017-02-21T13:17:38.983Z,60
2017-02-21T13:18:49.739Z,75
2017-02-21T13:19:59.678Z,70
2017-02-21T13:21:10.307Z,50
2017-02-21T13:22:21.098Z,40
2017-02-21T13:23:31.492Z,40
2017-02-21T13:24:41.848Z,35
2017-02-21T13:25:51.835Z,35
2017-02-21T13:27:02.487Z,45
2017-02-21T13:28:13.224Z,75
2017-02-21T13:29:23.592Z,65
2017-02-21T13:30:33.580Z,50
2017-02-21T13:31:44.333Z,35
2017-02-21T13:32:54.549Z,25
2017-02-21T13:34:04.909Z,35
2017-02-21T13:35:15.661Z,70
2017-02-21T13:36:25.643Z,70
2017-02-21T13:37:36.418Z,85
2017-02-21T13:38:46.634Z,90
2017-02-21T13:39:57.386Z,100
2017-02-21T13:41:07.355Z,100
2017-02-21T13:42:18.109Z,85
2017-02-21T13:43:28.104Z,80
2017-02-21T13:44:38.711Z,70
2017-02-21T13:45:48.692Z,70
2017-02-21T13:46:58.679Z,85
2017-02-21T13:48:09.424Z,90
2017-02-21T13:49:19.393Z,90
2017-02-21T13:50:29.993Z,75
2017-02-21T13:51:40.733Z,60
2017-02-21T13:52:51.071Z,55
2017-02-21T13:54:01.422Z,55
2017-02-21T13:55:11.820Z,60
2017-02-21T13:56:22.441Z,60
2017-02-21T13:57:32.793Z,55
2017-02-21T13:58:43.174Z,55
2017-02-21T13:59:53.536Z,60
2017-02-21T14:01:03.860Z,60
2017-02-21T14:02:14.954Z,65
2017-02-21T14:03:25.708Z,65
2017-02-21T14:04:36.050Z,60
2017-02-21T14:05:46.435Z,55
2017-02-21T14:06:57.188Z,55
2017-02-21T14:08:07.815Z,60
2017-02-21T14:09:18.807Z,55
2017-02-21T14:10:29.145Z,55
2017-02-21T14:11:39.469Z,50
2017-02-21T14:12:49.801Z,60
2017-02-21T14:14:00.810Z,65
2017-02-21T14:15:11.181Z,50
2017-02-21T14:16:21.954Z,50
2017-02-21T14:17:31.576Z,55
2017-02-21T14:18:42.340Z,60
2017-02-21T14:19:53.328Z,60
2017-02-21T14:21:03.295Z,65
2017-02-21T14:22:13.653Z,55
2017-02-21T14:23:23.999Z,45
2017-02-21T14:24:34.973Z,45
2017-02-21T14:25:45.186Z,45
2017-02-21T14:26:55.945Z,40
2017-02-21T14:28:06.318Z,35
2017-02-21T14:29:17.087Z,25
2017-02-21T14:30:27.065Z,30
2017-02-21T14:31:38.167Z,35
2017-02-21T14:32:48.111Z,35
2017-02-21T14:33:58.463Z,35
2017-02-21T14:35:09.200Z,45
2017-02-21T14:36:19.929Z,45
2017-02-21T14:37:29.795Z,55
2017-02-21T14:38:40.563Z,60
2017-02-21T14:39:50.934Z,50
2017-02-21T14:41:01.286Z,50
2017-02-21T14:42:11.229Z,55
2017-02-21T14:43:21.900Z,60
2017-02-21T14:44:32.257Z,65
2017-02-21T14:45:42.599Z,60
2017-02-21T14:46:52.952Z,50
2017-02-21T14:48:03.738Z,40
2017-02-21T14:49:14.350Z,40
2017-02-21T14:50:24.320Z,40
2017-02-21T14:51:34.685Z,40
2017-02-21T14:52:45.074Z,45
2017-02-21T14:53:55.433Z,45
2017-02-21T14:55:06.128Z,45
2017-02-21T14:56:16.878Z,45
2017-02-21T14:57:27.635Z,45
2017-02-21T14:58:37.577Z,50
2017-02-21T14:59:47.548Z,50
2017-02-21T15:00:58.553Z,50
2017-02-21T15:02:08.131Z,50
2017-02-21T15:03:18.147Z,40
2017-02-21T15:04:28.124Z,40
2017-02-21T15:05:38.479Z,40
2017-02-21T15:06:49.485Z,40
2017-02-21T15:07:59.444Z,35
2017-02-21T15:09:09.808Z,30
2017-02-21T15:10:20.180Z,30
2017-02-21T15:11:30.945Z,25
2017-02-21T15:12:41.965Z,25
2017-02-21T15:13:52.326Z,25
2017-02-21T15:15:02.697Z,20
2017-02-21T15:16:13.103Z,15
2017-02-21T15:17:23.065Z,15
2017-02-21T15:18:34.122Z,15
2017-02-21T15:19:43.681Z,15
2017-02-21T15:20:54.045Z,10
2017-02-21T15:22:04.802Z,10
2017-02-21T15:23:14.774Z,10
2017-02-21T15:24:25.773Z,10
2017-02-21T15:25:35.751Z,15
2017-02-21T15:26:46.500Z,25
2017-02-21T15:27:57.237Z,25
2017-02-21T15:29:08.003Z,25
2017-02-21T15:30:18.636Z,25
2017-02-21T15:31:28.560Z,25
2017-02-21T15:32:38.905Z,25
2017-02-21T15:33:49.674Z,25
2017-02-21T15:34:59.652Z,25
2017-02-21T15:36:10.282Z,20
2017-02-21T15:37:20.665Z,20
2017-02-21T15:38:30.649Z,20
2017-02-21T15:39:40.615Z,20
2017-02-21T15:40:51.370Z,20
2017-02-21T15:42:01.985Z,20
2017-02-21T15:43:12.778Z,20
2017-02-21T15:44:23.557Z,20
2017-02-21T15:45:34.313Z,20
2017-02-21T15:46:44.689Z,15
2017-02-21T15:47:55.327Z,15
2017-02-21T15:49:05.652Z,15
2017-02-21T15:50:16.421Z,15
2017-02-21T15:51:26.378Z,15
2017-02-21T15:52:36.370Z,15
2017-02-21T15:53:46.604Z,15
2017-02-21T15:54:56.564Z,15
2017-02-21T15:56:06.895Z,15
2017-02-21T15:57:16.850Z,15
2017-02-21T15:58:26.815Z,15
2017-02-21T15:59:36.640Z,15
2017-02-21T16:00:46.561Z,10
2017-02-21T16:01:56.880Z,10
2017-02-21T16:03:07.217Z,10
2017-02-21T16:04:17.548Z,10
2017-02-21T16:05:27.743Z,10
2017-02-21T16:06:38.479Z,10
2017-02-21T16:07:48.491Z,10
2017-02-21T16:08:59.226Z,10
2017-02-21T16:10:09.603Z,5
2017-02-21T16:11:20.205Z,5
2017-02-21T16:12:30.179Z,5
2017-02-21T16:13:40.576Z,5
2017-02-21T16:14:51.328Z,5
2017-02-21T16:16:01.678Z,5
2017-02-21T16:17:12.296Z,5
2017-02-21T16:18:21.865Z,5
2017-02-21T16:19:32.221Z,5
2017-02-21T16:20:42.963Z,5
2017-02-21T16:21:53.351Z,0
2017-02-21T16:23:04.458Z,0
2017-02-21T16:24:14.816Z,0
2017-02-21T16:25:25.605Z,0
2017-02-21T16:26:36.394Z,0
2017-02-21T16:27:46.759Z,0
2017-02-21T16:28:57.374Z,0
2017-02-21T16:30:07.736Z,0
2017-02-21T16:31:18.142Z,0
2017-02-21T16:32:28.918Z,0
2017-02-21T16:33:38.910Z,0
2017-02-21T16:34:49.985Z,0
2017-02-21T16:36:00.751Z,0
2017-02-21T16:37:11.503Z,0
2017-02-21T16:38:22.293Z,0
2017-02-21T16:39:32.680Z,0
2017-02-21T16:40:42.571Z,0
2017-02-21T16:41:52.946Z,0
2017-02-21T16:43:02.892Z,0
2017-02-21T16:44:12.855Z,0
2017-02-21T16:45:23.647Z,0
2017-02-21T16:46:34.316Z,0
2017-02-21T16:47:44.719Z,0
2017-02-21T16:48:55.471Z,0
2017-02-21T16:50:06.248Z,0
2017-02-21T16:51:16.619Z,0
2017-02-21T16:52:27.630Z,0
2017-02-21T16:53:38.386Z,0
2017-02-21T16:54:49.167Z,0
2017-02-21T16:55:59.529Z,0
2017-02-21T16:57:10.268Z,0
2017-02-21T16:58:20.511Z,0
2017-02-21T16:59:30.901Z,0
2017-02-21T17:00:41.260Z,0